Time;durP1;ratioP1;P1;durP2;ratioP2;P2;SDS_P1;SDS_P2;PMS_P1;PMS_P2;Temp;Humidity;BMP_temperature;BMP_pressure;BME280_temperature;BME280_humidity;BME280_pressure;Samples;Min_cycle;Max_cycle;Signal;HPM_P1;HPM_P2
2023/02/08 00:01:28;;;;;;;14.93;11.32;;;-1.40;99.90;;;;;;486548;244;27462;-75
2023/02/08 00:03:29;;;;;;;15.75;10.00;;;-1.30;99.90;;;;;;486577;244;27466;-76
2023/02/08 00:05:30;;;;;;;15.32;9.30;;;-1.40;99.90;;;;;;486514;244;27886;-75
2023/02/08 00:07:32;;;;;;;14.55;10.00;;;-1.40;99.90;;;;;;486533;244;27913;-75
2023/02/08 00:09:33;;;;;;;19.12;9.90;;;-1.40;99.90;;;;;;486500;244;27394;-75
2023/02/08 00:11:34;;;;;;;14.48;8.50;;;-1.30;99.90;;;;;;486552;244;27536;-76
2023/02/08 00:13:35;;;;;;;13.43;9.50;;;-1.30;99.90;;;;;;486557;244;27522;-76
2023/02/08 00:15:37;;;;;;;16.33;9.45;;;-1.30;99.90;;;;;;486578;244;27477;-76
2023/02/08 00:17:38;;;;;;;16.83;9.65;;;-1.30;99.90;;;;;;486544;244;27565;-76
2023/02/08 00:19:39;;;;;;;15.30;9.60;;;-1.30;99.90;;;;;;486519;244;28723;-76
2023/02/08 00:21:40;;;;;;;14.98;9.50;;;-1.20;99.90;;;;;;486541;244;28218;-75
2023/02/08 00:23:42;;;;;;;12.73;9.55;;;-1.20;99.90;;;;;;486534;244;27474;-76
2023/02/08 00:25:43;;;;;;;15.80;9.68;;;-1.30;99.90;;;;;;486535;244;27401;-75
2023/02/08 00:27:44;;;;;;;16.70;9.30;;;-1.30;99.90;;;;;;486539;244;27473;-76
2023/02/08 00:29:45;;;;;;;15.82;9.48;;;-1.30;99.90;;;;;;486533;244;27413;-75
2023/02/08 00:31:47;;;;;;;17.12;9.75;;;-1.30;99.90;;;;;;486564;244;27415;-76
2023/02/08 00:33:48;;;;;;;16.05;9.02;;;-1.30;99.90;;;;;;486545;244;27486;-75
2023/02/08 00:35:49;;;;;;;19.42;10.40;;;-1.40;99.90;;;;;;486519;244;27877;-76
2023/02/08 00:37:50;;;;;;;12.70;8.27;;;-1.40;99.90;;;;;;486498;244;29176;-76
2023/02/08 00:39:52;;;;;;;13.52;9.35;;;-1.40;99.90;;;;;;486599;244;27526;-75
2023/02/08 00:41:53;;;;;;;12.37;8.90;;;-1.30;99.90;;;;;;486585;244;27436;-75
2023/02/08 00:43:54;;;;;;;13.10;8.93;;;-1.40;99.90;;;;;;486558;244;27469;-75
2023/02/08 00:45:56;;;;;;;14.73;9.63;;;-1.30;99.90;;;;;;486575;244;27407;-76
2023/02/08 00:47:57;;;;;;;12.93;9.52;;;-1.30;99.90;;;;;;486539;244;27545;-76
2023/02/08 00:49:58;;;;;;;14.45;9.00;;;-1.40;99.90;;;;;;486572;244;28002;-76
2023/02/08 00:51:59;;;;;;;13.10;8.75;;;-1.40;99.90;;;;;;486571;244;29105;-76
2023/02/08 00:54:01;;;;;;;17.70;9.38;;;-1.40;99.90;;;;;;486548;244;27482;-75
2023/02/08 00:56:02;;;;;;;18.42;9.50;;;-1.40;99.90;;;;;;486465;244;27528;-76
2023/02/08 00:58:03;;;;;;;16.45;9.45;;;-1.40;99.90;;;;;;486489;244;27442;-76
2023/02/08 01:00:04;;;;;;;14.15;9.45;;;-1.50;99.90;;;;;;486539;244;27804;-78
2023/02/08 01:02:06;;;;;;;12.45;8.63;;;-1.50;99.90;;;;;;486546;244;27406;-76
2023/02/08 01:04:07;;;;;;;11.05;8.20;;;-1.50;99.90;;;;;;486511;244;27619;-75
2023/02/08 01:06:08;;;;;;;15.68;9.43;;;-1.60;99.90;;;;;;486532;244;27999;-76
2023/02/08 01:08:09;;;;;;;13.23;7.90;;;-1.60;99.90;;;;;;486507;244;28007;-76
2023/02/08 01:10:11;;;;;;;12.68;8.40;;;-1.60;99.90;;;;;;486543;243;27525;-76
2023/02/08 01:12:12;;;;;;;15.05;9.15;;;-1.60;99.90;;;;;;486572;244;27462;-76
2023/02/08 01:14:13;;;;;;;12.27;8.18;;;-1.60;99.90;;;;;;486520;244;27473;-76
2023/02/08 01:16:14;;;;;;;16.08;8.55;;;-1.60;99.90;;;;;;486531;244;27544;-76
2023/02/08 01:18:16;;;;;;;17.40;8.65;;;-1.60;99.90;;;;;;486523;244;27450;-75
2023/02/08 01:20:17;;;;;;;18.45;9.10;;;-1.60;99.90;;;;;;486554;244;27514;-76
2023/02/08 01:22:18;;;;;;;13.10;8.98;;;-1.60;99.90;;;;;;486553;244;27918;-76
2023/02/08 01:24:19;;;;;;;16.02;9.27;;;-1.70;99.90;;;;;;486489;244;29177;-75
2023/02/08 01:26:21;;;;;;;13.65;8.65;;;-1.70;99.90;;;;;;486504;244;27399;-75
2023/02/08 01:28:22;;;;;;;12.45;8.75;;;-1.70;99.90;;;;;;486491;244;27516;-76
2023/02/08 01:30:23;;;;;;;14.70;8.40;;;-1.70;99.90;;;;;;486546;244;27833;-76
2023/02/08 01:32:24;;;;;;;13.27;8.20;;;-1.80;99.90;;;;;;486553;244;27292;-76
2023/02/08 01:34:26;;;;;;;14.40;8.50;;;-1.80;99.90;;;;;;486534;244;27530;-76
2023/02/08 01:36:27;;;;;;;14.13;8.32;;;-1.70;99.90;;;;;;486511;244;27932;-76
2023/02/08 01:38:28;;;;;;;13.60;9.20;;;-1.70;99.90;;;;;;486497;244;28025;-75
2023/02/08 01:40:30;;;;;;;12.05;8.85;;;-1.70;99.90;;;;;;486553;244;28142;-76
2023/02/08 01:42:31;;;;;;;11.43;7.97;;;-1.70;99.90;;;;;;486529;244;27394;-75
2023/02/08 01:44:32;;;;;;;11.02;8.23;;;-1.70;99.90;;;;;;486506;244;27564;-75
2023/02/08 01:46:33;;;;;;;14.55;8.45;;;-1.70;99.90;;;;;;486543;244;27781;-76
2023/02/08 01:48:34;;;;;;;12.85;8.02;;;-1.70;99.90;;;;;;486517;244;27549;-76
2023/02/08 01:50:36;;;;;;;11.60;8.52;;;-1.70;99.90;;;;;;486507;244;27394;-75
2023/02/08 01:52:37;;;;;;;13.75;7.70;;;-1.70;99.90;;;;;;486549;244;27930;-76
2023/02/08 01:54:39;;;;;;;14.40;8.68;;;-1.80;99.90;;;;;;486548;244;27910;-75
2023/02/08 01:56:40;;;;;;;11.93;7.82;;;-1.80;99.30;;;;;;486441;240;27403;-75
2023/02/08 01:58:41;;;;;;;12.90;8.48;;;-1.70;98.10;;;;;;486555;244;27535;-76
2023/02/08 02:00:42;;;;;;;12.30;8.18;;;-1.70;99.50;;;;;;486554;244;27407;-75
2023/02/08 02:02:43;;;;;;;10.80;7.30;;;-1.70;97.60;;;;;;486364;244;27446;-75
2023/02/08 02:04:45;;;;;;;12.15;6.80;;;-1.80;98.40;;;;;;486495;244;27442;-76
2023/02/08 02:06:46;;;;;;;11.68;7.97;;;-1.80;99.40;;;;;;486544;244;27474;-75
2023/02/08 02:08:47;;;;;;;12.70;7.78;;;-1.80;98.50;;;;;;486530;244;27986;-75
2023/02/08 02:10:49;;;;;;;10.70;7.65;;;-1.90;99.00;;;;;;486480;244;29065;-75
2023/02/08 02:12:50;;;;;;;14.40;7.97;;;-1.90;99.90;;;;;;486536;244;27530;-75
2023/02/08 02:14:51;;;;;;;12.80;8.30;;;-1.90;99.00;;;;;;486544;244;27525;-76
2023/02/08 02:16:52;;;;;;;10.50;7.53;;;-1.80;97.40;;;;;;486535;244;27430;-75
2023/02/08 02:18:53;;;;;;;14.43;8.13;;;-1.80;98.10;;;;;;486493;244;27560;-75
2023/02/08 02:20:55;;;;;;;11.93;7.37;;;-1.90;98.10;;;;;;486510;244;27288;-75
2023/02/08 02:22:56;;;;;;;12.18;7.60;;;-1.90;99.00;;;;;;486499;244;28025;-76
2023/02/08 02:24:58;;;;;;;15.00;8.95;;;-1.90;98.30;;;;;;486537;244;28034;-76
2023/02/08 02:26:58;;;;;;;10.60;7.95;;;-1.90;99.00;;;;;;486447;244;28002;-75
2023/02/08 02:29:00;;;;;;;11.98;8.07;;;-2.00;98.70;;;;;;486521;244;27442;-77
2023/02/08 02:31:01;;;;;;;13.38;7.35;;;-2.00;99.20;;;;;;486484;244;27387;-75
2023/02/08 02:33:02;;;;;;;12.35;8.45;;;-2.00;99.90;;;;;;486383;244;27487;-76
2023/02/08 02:35:03;;;;;;;12.65;8.95;;;-2.00;99.90;;;;;;486507;244;27485;-75
2023/02/08 02:37:05;;;;;;;10.52;7.70;;;-2.10;99.90;;;;;;486488;244;27482;-76
2023/02/08 02:39:06;;;;;;;12.90;7.85;;;-2.10;99.90;;;;;;486479;244;27995;-76
2023/02/08 02:41:07;;;;;;;13.85;8.35;;;-2.10;99.90;;;;;;486454;244;28981;-75
2023/02/08 02:45:28;;;;;;;11.43;7.55;;;-2.10;99.50;;;;;;486511;244;27980;-76
2023/02/08 02:47:29;;;;;;;11.23;7.32;;;-2.10;99.30;;;;;;486461;244;27617;-75
2023/02/08 02:49:31;;;;;;;11.30;7.60;;;-2.10;99.80;;;;;;486537;244;27498;-75
2023/02/08 02:51:32;;;;;;;11.55;8.23;;;-2.10;99.50;;;;;;486549;244;27549;-76
2023/02/08 02:53:33;;;;;;;14.77;7.55;;;-2.20;99.40;;;;;;486532;244;27419;-75
2023/02/08 02:55:34;;;;;;;10.63;7.95;;;-2.20;99.80;;;;;;486536;244;27549;-75
2023/02/08 02:57:36;;;;;;;13.38;7.43;;;-2.20;99.70;;;;;;486512;244;27438;-75
2023/02/08 02:59:37;;;;;;;11.95;8.02;;;-2.20;98.40;;;;;;486572;244;27850;-75
2023/02/08 03:01:38;;;;;;;17.05;8.20;;;-2.20;99.10;;;;;;486544;244;28011;-76
2023/02/08 03:03:39;;;;;;;13.15;7.95;;;-2.20;98.90;;;;;;486528;244;27511;-75
2023/02/08 03:05:41;;;;;;;8.85;7.37;;;-2.20;98.30;;;;;;486532;244;27434;-76
2023/02/08 03:07:42;;;;;;;11.20;7.80;;;-2.20;97.80;;;;;;486548;244;27521;-75
2023/02/08 03:09:43;;;;;;;13.55;9.07;;;-2.20;97.20;;;;;;486570;244;27469;-76
2023/02/08 03:11:44;;;;;;;11.57;7.60;;;-2.20;96.60;;;;;;486528;244;27541;-75
2023/02/08 03:13:46;;;;;;;10.15;8.00;;;-2.20;96.80;;;;;;486566;244;27319;-75
2023/02/08 03:15:47;;;;;;;9.82;7.70;;;-2.20;96.20;;;;;;486511;244;27982;-76
2023/02/08 03:17:48;;;;;;;10.63;7.37;;;-2.20;97.60;;;;;;486553;244;27988;-75
2023/02/08 03:19:49;;;;;;;12.48;7.80;;;-2.20;97.40;;;;;;486419;244;27422;-75
2023/02/08 03:21:51;;;;;;;10.80;8.10;;;-2.20;97.40;;;;;;486565;244;27241;-76
2023/02/08 03:23:52;;;;;;;14.15;8.57;;;-2.30;97.80;;;;;;486560;244;27490;-75
2023/02/08 03:25:53;;;;;;;11.25;8.30;;;-2.30;98.20;;;;;;486538;244;27446;-75
2023/02/08 03:27:55;;;;;;;13.02;7.80;;;-2.30;97.60;;;;;;486573;244;27173;-75
2023/02/08 03:29:56;;;;;;;11.10;8.30;;;-2.30;97.10;;;;;;486577;244;27447;-76
2023/02/08 03:31:57;;;;;;;10.38;8.10;;;-2.30;97.20;;;;;;486581;244;28002;-76
2023/02/08 03:33:58;;;;;;;11.32;8.07;;;-2.30;97.90;;;;;;486582;244;27811;-75
2023/02/08 03:35:59;;;;;;;12.32;8.02;;;-2.30;98.20;;;;;;486411;244;27301;-75
2023/02/08 03:38:01;;;;;;;12.05;8.25;;;-2.40;98.80;;;;;;486545;244;27407;-75
2023/02/08 03:40:02;;;;;;;16.17;8.50;;;-2.40;98.70;;;;;;486565;244;27422;-75
2023/02/08 03:42:03;;;;;;;12.68;8.38;;;-2.30;98.20;;;;;;486427;244;27364;-75
2023/02/08 03:44:04;;;;;;;15.07;9.13;;;-2.30;98.80;;;;;;486551;244;27498;-75
2023/02/08 03:46:06;;;;;;;12.07;8.07;;;-2.30;98.80;;;;;;486510;244;27352;-76
2023/02/08 03:48:08;;;;;;;12.82;9.30;;;-2.40;99.30;;;;;;486539;244;27933;-75
2023/02/08 03:50:08;;;;;;;14.23;8.60;;;-2.30;99.00;;;;;;486525;244;28946;-76
2023/02/08 03:52:10;;;;;;;16.42;9.00;;;-2.30;99.50;;;;;;486583;244;27528;-76
2023/02/08 03:54:11;;;;;;;14.00;8.77;;;-2.30;99.30;;;;;;486540;244;27394;-75
2023/02/08 03:56:12;;;;;;;13.98;9.25;;;-2.30;99.70;;;;;;486543;244;27450;-75
2023/02/08 03:58:13;;;;;;;12.82;8.85;;;-2.30;99.50;;;;;;486518;244;27426;-75
2023/02/08 04:00:15;;;;;;;11.80;8.93;;;-2.40;99.70;;;;;;486555;244;27446;-75
2023/02/08 04:02:16;;;;;;;14.77;9.15;;;-2.40;99.90;;;;;;486561;244;27883;-75
2023/02/08 04:04:17;;;;;;;16.58;8.60;;;-2.40;99.90;;;;;;486534;244;28949;-75
2023/02/08 04:06:18;;;;;;;14.10;8.65;;;-2.40;99.90;;;;;;486525;244;27413;-75
2023/02/08 04:08:20;;;;;;;13.43;9.05;;;-2.50;99.90;;;;;;486294;244;27222;-75
2023/02/08 04:10:21;;;;;;;13.95;8.85;;;-2.50;99.90;;;;;;486428;244;27490;-76
2023/02/08 04:12:22;;;;;;;13.90;9.75;;;-2.40;99.90;;;;;;486564;244;27401;-77
2023/02/08 04:14:23;;;;;;;13.15;8.57;;;-2.40;99.90;;;;;;486532;244;27430;-75
2023/02/08 04:16:25;;;;;;;13.20;9.07;;;-2.40;99.90;;;;;;486532;244;27324;-76
2023/02/08 04:18:26;;;;;;;15.60;9.20;;;-2.40;99.90;;;;;;486312;244;27845;-75
2023/02/08 04:20:27;;;;;;;12.27;8.93;;;-2.40;99.90;;;;;;486574;244;27882;-76
2023/02/08 04:22:28;;;;;;;16.05;10.70;;;-2.30;99.90;;;;;;486550;244;27193;-76
2023/02/08 04:24:30;;;;;;;19.17;10.85;;;-2.20;99.90;;;;;;486515;244;27464;-76
2023/02/08 04:26:31;;;;;;;12.40;8.80;;;-2.30;99.90;;;;;;486529;244;27478;-76
2023/02/08 04:28:32;;;;;;;14.48;9.68;;;-2.20;99.90;;;;;;486532;244;27395;-75
2023/02/08 04:30:34;;;;;;;14.02;9.60;;;-2.10;99.90;;;;;;486483;244;27470;-75
2023/02/08 04:32:35;;;;;;;13.85;10.05;;;-2.10;99.90;;;;;;486547;244;27892;-77
2023/02/08 04:34:36;;;;;;;16.87;10.60;;;-2.20;99.90;;;;;;486535;244;27097;-76
2023/02/08 04:36:37;;;;;;;18.37;10.77;;;-2.00;99.90;;;;;;486518;244;27490;-75
2023/02/08 04:38:39;;;;;;;14.15;9.55;;;-2.00;99.90;;;;;;486534;244;27831;-76
2023/02/08 04:40:40;;;;;;;17.33;10.45;;;-2.00;99.90;;;;;;486487;244;27810;-76
2023/02/08 04:42:41;;;;;;;16.00;10.85;;;-2.00;99.90;;;;;;486513;244;27921;-76
2023/02/08 04:44:42;;;;;;;18.30;10.50;;;-2.00;99.90;;;;;;486526;244;27485;-76
2023/02/08 04:46:44;;;;;;;20.17;12.65;;;-2.00;99.90;;;;;;486547;244;27446;-75
2023/02/08 04:48:45;;;;;;;18.05;10.73;;;-2.00;99.90;;;;;;486608;244;27855;-75
2023/02/08 04:50:46;;;;;;;18.05;10.75;;;-2.00;99.90;;;;;;486576;244;27435;-75
2023/02/08 04:52:48;;;;;;;15.60;10.73;;;-2.00;99.90;;;;;;486575;244;27449;-76
2023/02/08 04:54:49;;;;;;;14.63;10.32;;;-1.90;99.90;;;;;;486553;244;27858;-75
2023/02/08 04:56:50;;;;;;;19.37;11.10;;;-2.00;99.90;;;;;;486547;244;27438;-76
2023/02/08 04:58:51;;;;;;;21.73;13.77;;;-2.10;99.90;;;;;;486576;244;27553;-75
2023/02/08 05:00:53;;;;;;;14.23;10.05;;;-2.10;99.90;;;;;;486576;244;27511;-75
2023/02/08 05:02:54;;;;;;;16.87;10.70;;;-2.00;99.90;;;;;;486572;244;27233;-76
2023/02/08 05:04:55;;;;;;;19.30;11.60;;;-1.90;99.90;;;;;;486526;244;27312;-75
2023/02/08 05:06:56;;;;;;;15.02;10.68;;;-2.00;99.90;;;;;;486541;244;27889;-76
2023/02/08 05:08:58;;;;;;;15.45;10.48;;;-2.00;99.90;;;;;;486598;244;28021;-76
2023/02/08 05:10:59;;;;;;;16.95;10.20;;;-1.90;99.90;;;;;;486563;244;27415;-75
2023/02/08 05:13:00;;;;;;;16.70;10.10;;;-2.00;99.90;;;;;;486570;244;27437;-75
2023/02/08 05:15:01;;;;;;;19.12;11.12;;;-1.90;99.90;;;;;;486497;244;27421;-79
2023/02/08 05:17:03;;;;;;;15.27;9.80;;;-1.90;99.90;;;;;;486514;244;27442;-75
2023/02/08 05:19:04;;;;;;;17.27;10.30;;;-1.90;99.90;;;;;;486579;244;27954;-76
2023/02/08 05:21:05;;;;;;;15.80;9.57;;;-1.90;99.90;;;;;;486546;244;29051;-75
2023/02/08 05:23:06;;;;;;;13.43;9.85;;;-1.90;99.90;;;;;;486481;244;27536;-76
2023/02/08 05:25:08;;;;;;;17.02;10.13;;;-2.00;99.90;;;;;;486513;244;27409;-76
2023/02/08 05:27:09;;;;;;;16.05;9.30;;;-2.00;99.90;;;;;;486511;244;27529;-75
2023/02/08 05:29:10;;;;;;;15.38;11.10;;;-2.00;99.90;;;;;;486551;244;27405;-76
2023/02/08 05:31:11;;;;;;;15.90;9.55;;;-2.00;99.90;;;;;;486536;244;27499;-76
2023/02/08 05:33:13;;;;;;;15.02;9.38;;;-2.00;99.80;;;;;;486519;244;27853;-75
2023/02/08 05:35:14;;;;;;;17.62;9.90;;;-2.00;99.50;;;;;;486483;244;27870;-75
2023/02/08 05:37:15;;;;;;;16.45;9.98;;;-2.00;99.90;;;;;;486514;244;27450;-76
2023/02/08 05:39:16;;;;;;;17.05;10.60;;;-2.10;99.90;;;;;;486353;244;27512;-75
2023/02/08 05:41:18;;;;;;;18.42;10.25;;;-2.10;99.90;;;;;;486548;244;27411;-76
2023/02/08 05:43:19;;;;;;;16.23;9.32;;;-2.00;99.70;;;;;;486517;244;27453;-76
2023/02/08 05:45:20;;;;;;;12.27;9.13;;;-2.00;99.10;;;;;;486507;244;27454;-75
2023/02/08 05:47:21;;;;;;;13.07;9.27;;;-2.00;98.90;;;;;;486497;244;27446;-76
2023/02/08 05:49:23;;;;;;;14.95;9.35;;;-1.90;98.40;;;;;;486561;244;28049;-76
2023/02/08 05:51:24;;;;;;;16.60;9.40;;;-1.90;97.70;;;;;;486542;244;27966;-76
2023/02/08 05:53:26;;;;;;;16.45;9.93;;;-1.90;97.90;;;;;;486527;244;27498;-76
2023/02/08 05:55:27;;;;;;;14.90;9.18;;;-1.90;97.90;;;;;;486483;244;27240;-76
2023/02/08 05:57:28;;;;;;;16.02;9.73;;;-2.00;97.60;;;;;;486508;244;27465;-75
2023/02/08 05:59:29;;;;;;;15.55;9.00;;;-2.00;97.80;;;;;;486525;244;27815;-77
2023/02/08 06:01:30;;;;;;;13.45;9.18;;;-2.00;97.60;;;;;;486502;244;27544;-75
2023/02/08 06:03:32;;;;;;;14.75;8.90;;;-2.00;97.10;;;;;;486535;244;27958;-75
2023/02/08 06:05:33;;;;;;;13.60;9.50;;;-2.00;96.60;;;;;;486481;244;27867;-75
2023/02/08 06:07:34;;;;;;;12.00;8.52;;;-2.00;96.80;;;;;;486550;244;27521;-75
2023/02/08 06:09:35;;;;;;;13.68;8.93;;;-2.00;96.40;;;;;;486570;244;27524;-78
2023/02/08 06:11:37;;;;;;;16.27;10.30;;;-1.90;95.20;;;;;;486530;244;27559;-76
2023/02/08 06:13:41;;;;;;;14.30;9.45;;;-1.90;95.00;;;;;;486510;244;27517;-76
2023/02/08 06:15:42;;;;;;;13.43;8.55;;;-1.90;94.60;;;;;;486531;244;27470;-75
2023/02/08 06:17:43;;;;;;;15.15;9.55;;;-1.90;94.70;;;;;;486511;244;27399;-76
2023/02/08 06:19:44;;;;;;;13.07;9.43;;;-2.00;95.30;;;;;;486562;244;27518;-75
2023/02/08 06:21:46;;;;;;;12.52;8.80;;;-2.00;95.40;;;;;;486587;244;27495;-76
2023/02/08 06:23:47;;;;;;;15.50;8.95;;;-2.10;95.90;;;;;;486542;244;27433;-76
2023/02/08 06:25:48;;;;;;;15.52;9.43;;;-2.10;95.70;;;;;;486534;244;27454;-75
2023/02/08 06:27:49;;;;;;;15.60;9.60;;;-2.10;96.40;;;;;;486520;244;27854;-75
2023/02/08 06:29:51;;;;;;;15.73;9.07;;;-2.20;96.70;;;;;;486517;244;29008;-75
2023/02/08 06:31:52;;;;;;;13.77;9.00;;;-2.20;97.20;;;;;;486581;244;27545;-75
2023/02/08 06:33:53;;;;;;;13.80;9.30;;;-2.20;97.10;;;;;;486548;244;27473;-75
2023/02/08 06:35:54;;;;;;;16.80;9.85;;;-2.20;97.40;;;;;;486541;244;27486;-75
2023/02/08 06:37:57;;;;;;;16.40;10.65;;;-2.20;96.80;;;;;;486558;244;27204;-75
2023/02/08 06:39:57;;;;;;;17.23;9.90;;;-2.20;97.10;;;;;;486510;244;27469;-75
2023/02/08 06:41:58;;;;;;;13.52;9.27;;;-2.20;96.70;;;;;;486524;244;27909;-75
2023/02/08 06:44:01;;;;;;;14.48;8.95;;;-2.20;96.80;;;;;;486515;244;28039;-76
2023/02/08 06:46:03;;;;;;;13.90;9.18;;;-2.20;96.30;;;;;;486446;244;27924;-76
2023/02/08 06:48:02;;;;;;;13.02;8.75;;;-2.20;97.00;;;;;;486319;244;27406;-75
2023/02/08 06:50:03;;;;;;;11.05;8.25;;;-2.20;97.10;;;;;;486461;244;27482;-76
2023/02/08 06:52:05;;;;;;;14.65;8.65;;;-2.30;97.50;;;;;;486551;244;27759;-75
2023/02/08 06:54:06;;;;;;;12.55;8.52;;;-2.30;96.90;;;;;;486533;244;27415;-76
2023/02/08 06:56:07;;;;;;;15.57;9.05;;;-2.20;96.80;;;;;;486483;244;27462;-76
2023/02/08 06:58:09;;;;;;;14.52;9.15;;;-2.20;96.90;;;;;;486499;244;27809;-76
2023/02/08 07:00:10;;;;;;;11.00;8.80;;;-2.20;96.90;;;;;;486501;244;27905;-76
2023/02/08 07:02:11;;;;;;;13.27;8.90;;;-2.20;97.00;;;;;;486556;244;27446;-77
2023/02/08 07:04:12;;;;;;;10.75;8.00;;;-2.20;96.60;;;;;;486505;244;27454;-76
2023/02/08 07:06:13;;;;;;;15.10;8.93;;;-2.20;96.70;;;;;;486507;244;27466;-75
2023/02/08 07:08:15;;;;;;;10.88;7.85;;;-2.20;96.80;;;;;;486486;244;27450;-76
2023/02/08 07:10:16;;;;;;;15.77;8.75;;;-2.10;96.10;;;;;;486515;244;27481;-76
2023/02/08 07:12:17;;;;;;;11.00;7.65;;;-2.10;96.40;;;;;;486517;244;27454;-75
2023/02/08 07:14:18;;;;;;;12.93;8.07;;;-2.10;96.30;;;;;;486532;244;27937;-75
2023/02/08 07:16:20;;;;;;;17.77;8.80;;;-2.10;95.00;;;;;;486515;244;29019;-75
2023/02/08 07:18:21;;;;;;;12.45;8.15;;;-2.00;94.70;;;;;;486504;244;27426;-75
2023/02/08 07:20:22;;;;;;;11.18;8.40;;;-2.00;94.80;;;;;;486481;244;27529;-75
2023/02/08 07:22:23;;;;;;;15.23;8.98;;;-2.00;94.30;;;;;;486550;244;27783;-76
2023/02/08 07:24:25;;;;;;;12.90;8.05;;;-2.00;94.70;;;;;;486527;244;27409;-75
2023/02/08 07:26:26;;;;;;;11.60;7.87;;;-1.80;92.80;;;;;;486505;244;27434;-75
2023/02/08 07:28:27;;;;;;;14.30;9.18;;;-1.90;93.60;;;;;;486537;244;27937;-75
2023/02/08 07:30:28;;;;;;;23.65;9.20;;;-1.90;93.80;;;;;;486495;244;27908;-76
2023/02/08 07:32:30;;;;;;;13.15;8.13;;;-1.90;94.00;;;;;;486556;244;27549;-76
2023/02/08 07:34:31;;;;;;;12.27;8.63;;;-1.80;93.70;;;;;;486527;240;27477;-76
2023/02/08 07:36:34;;;;;;;13.57;8.73;;;-1.90;93.70;;;;;;486538;244;27450;-76
2023/02/08 07:38:33;;;;;;;12.70;9.00;;;-1.80;92.60;;;;;;486424;244;27424;-76
2023/02/08 07:40:35;;;;;;;11.95;8.25;;;-1.70;92.20;;;;;;486494;244;27544;-75
2023/02/08 07:42:36;;;;;;;13.27;8.90;;;-1.80;92.60;;;;;;486554;244;27473;-76
2023/02/08 07:44:37;;;;;;;18.50;10.95;;;-1.80;93.10;;;;;;486541;244;27878;-76
2023/02/08 07:46:38;;;;;;;13.90;8.95;;;-1.70;92.60;;;;;;486521;244;27930;-76
2023/02/08 07:48:40;;;;;;;12.95;8.07;;;-1.70;92.00;;;;;;486544;244;27455;-75
2023/02/08 07:50:41;;;;;;;12.50;8.70;;;-1.70;92.30;;;;;;486533;244;27504;-76
2023/02/08 07:52:44;;;;;;;13.80;8.52;;;-1.70;91.20;;;;;;486584;244;27458;-76
2023/02/08 07:54:43;;;;;;;13.68;8.52;;;-1.60;90.30;;;;;;486403;244;27522;-76
2023/02/08 07:56:45;;;;;;;14.23;9.00;;;-1.50;89.40;;;;;;486547;244;27470;-76
2023/02/08 07:58:46;;;;;;;14.75;9.10;;;-1.50;88.70;;;;;;486557;244;27403;-75
2023/02/08 08:00:47;;;;;;;14.10;8.90;;;-1.50;87.70;;;;;;486539;244;27906;-76
2023/02/08 08:02:49;;;;;;;13.88;8.77;;;-1.50;88.00;;;;;;486524;241;29108;-76
2023/02/08 08:04:52;;;;;;;13.82;8.30;;;-1.40;86.30;;;;;;486521;244;27417;-75
2023/02/08 08:06:52;;;;;;;14.43;9.20;;;-1.40;85.70;;;;;;486366;244;27557;-76
2023/02/08 08:08:52;;;;;;;12.57;8.70;;;-1.40;84.50;;;;;;486468;244;27498;-76
2023/02/08 08:10:56;;;;;;;12.45;8.38;;;-1.30;83.20;;;;;;486492;244;27488;-76
2023/02/08 08:12:55;;;;;;;11.75;8.40;;;-1.30;82.50;;;;;;486423;244;27466;-77
2023/02/08 08:14:56;;;;;;;15.13;9.38;;;-1.30;82.10;;;;;;486525;244;27879;-76
2023/02/08 08:16:57;;;;;;;13.10;8.98;;;-1.20;80.80;;;;;;486516;244;27972;-76
2023/02/08 08:18:59;;;;;;;12.65;8.68;;;-1.10;80.00;;;;;;486508;244;27469;-75
2023/02/08 08:21:00;;;;;;;15.73;8.85;;;-1.10;79.80;;;;;;486399;244;27425;-76
2023/02/08 08:23:01;;;;;;;10.25;7.97;;;-1.10;79.20;;;;;;486542;244;27466;-75
2023/02/08 08:25:02;;;;;;;16.92;9.13;;;-1.10;78.70;;;;;;486522;244;27477;-76
2023/02/08 08:27:04;;;;;;;13.98;8.98;;;-1.00;76.50;;;;;;486507;244;27545;-76
2023/02/08 08:29:05;;;;;;;11.07;7.75;;;-0.90;76.20;;;;;;486498;244;27485;-76
2023/02/08 08:31:06;;;;;;;14.80;9.15;;;-0.90;76.00;;;;;;486517;244;27867;-76
2023/02/08 08:33:07;;;;;;;12.30;8.60;;;-0.90;75.50;;;;;;486561;244;27916;-76
2023/02/08 08:35:09;;;;;;;14.68;8.23;;;-0.80;71.80;;;;;;486532;244;27398;-76
2023/02/08 08:37:10;;;;;;;11.68;7.65;;;-0.80;72.60;;;;;;486522;244;27446;-75
2023/02/08 08:39:11;;;;;;;10.88;7.70;;;-0.70;71.10;;;;;;486501;244;27441;-75
2023/02/08 08:41:13;;;;;;;12.60;8.52;;;-0.70;70.50;;;;;;486557;244;27414;-76
2023/02/08 08:43:14;;;;;;;11.25;8.15;;;-0.60;69.90;;;;;;486516;244;27484;-76
2023/02/08 08:45:15;;;;;;;12.27;8.50;;;-0.60;69.80;;;;;;486498;244;27478;-75
2023/02/08 08:47:16;;;;;;;10.98;7.75;;;-0.60;69.00;;;;;;486503;244;27961;-77
2023/02/08 08:49:17;;;;;;;10.45;7.50;;;-0.50;68.30;;;;;;486553;244;28728;-76
2023/02/08 08:51:19;;;;;;;12.80;8.32;;;-0.50;68.80;;;;;;486540;244;27474;-76
2023/02/08 08:53:21;;;;;;;11.23;8.25;;;-0.50;67.70;;;;;;486527;244;27545;-76
2023/02/08 08:55:21;;;;;;;12.32;7.60;;;-0.50;68.20;;;;;;486507;244;27433;-76
2023/02/08 08:57:22;;;;;;;11.27;8.15;;;-0.40;67.60;;;;;;486503;244;27454;-76
2023/02/08 08:59:24;;;;;;;11.10;7.85;;;-0.40;66.40;;;;;;486517;244;27402;-76
2023/02/08 09:01:25;;;;;;;11.93;7.75;;;-0.40;66.80;;;;;;486553;244;27947;-75
2023/02/08 09:03:26;;;;;;;11.98;8.10;;;-0.30;65.40;;;;;;486527;244;28110;-76
2023/02/08 09:05:27;;;;;;;15.85;9.00;;;-0.30;66.20;;;;;;486519;244;27466;-76
2023/02/08 09:07:29;;;;;;;14.27;8.32;;;-0.20;65.20;;;;;;486505;244;27513;-76
2023/02/08 09:09:30;;;;;;;10.35;7.80;;;-0.20;64.20;;;;;;486484;244;27473;-76
2023/02/08 09:11:32;;;;;;;13.40;8.07;;;-0.20;65.10;;;;;;486543;244;27526;-76
2023/02/08 09:13:32;;;;;;;13.45;7.45;;;-0.10;63.20;;;;;;486425;243;27457;-76
2023/02/08 09:15:34;;;;;;;13.18;8.70;;;-0.20;65.20;;;;;;486507;244;27410;-76
2023/02/08 09:17:35;;;;;;;12.35;7.93;;;-0.10;64.60;;;;;;486484;242;28109;-76
2023/02/08 09:19:36;;;;;;;12.37;8.00;;;0.00;63.70;;;;;;486559;244;27922;-76
2023/02/08 09:21:39;;;;;;;12.65;7.97;;;0.00;62.40;;;;;;486568;244;27398;-76
2023/02/08 09:23:39;;;;;;;12.50;8.32;;;0.00;60.90;;;;;;486509;244;27548;-76
2023/02/08 09:25:40;;;;;;;11.25;7.80;;;0.00;63.00;;;;;;486531;244;27536;-76
2023/02/08 09:27:41;;;;;;;12.85;8.10;;;0.10;61.80;;;;;;486520;244;27443;-76
2023/02/08 09:29:43;;;;;;;15.82;10.23;;;0.10;60.90;;;;;;486561;244;27562;-76
2023/02/08 09:31:44;;;;;;;15.52;8.40;;;0.20;61.40;;;;;;486573;244;27422;-76
2023/02/08 09:33:45;;;;;;;13.27;7.87;;;0.20;60.50;;;;;;486562;240;27438;-76
2023/02/08 09:35:46;;;;;;;13.38;7.47;;;0.30;59.70;;;;;;486528;244;28879;-76
2023/02/08 09:37:53;;;;;;;11.55;8.13;;;0.30;59.70;;;;;;486475;244;27926;-76
2023/02/08 09:39:49;;;;;;;11.25;6.87;;;0.40;59.60;;;;;;486140;244;27884;-75
2023/02/08 09:41:50;;;;;;;11.00;7.00;;;0.40;59.60;;;;;;486533;244;27496;-76
2023/02/08 09:43:51;;;;;;;11.20;7.45;;;0.50;59.40;;;;;;486530;244;27529;-76
2023/02/08 09:45:53;;;;;;;12.80;7.85;;;0.50;59.30;;;;;;486511;244;27407;-76
2023/02/08 09:47:54;;;;;;;10.07;7.03;;;0.60;59.30;;;;;;486502;244;27455;-76
2023/02/08 09:49:55;;;;;;;13.50;7.50;;;0.60;58.00;;;;;;486506;244;27488;-76
2023/02/08 09:51:56;;;;;;;11.30;7.35;;;0.70;59.00;;;;;;486530;244;27406;-76
2023/02/08 09:53:58;;;;;;;13.15;8.20;;;0.80;58.00;;;;;;486511;244;27437;-76
2023/02/08 09:55:59;;;;;;;10.95;7.70;;;0.80;58.40;;;;;;486508;244;27852;-76
2023/02/08 09:58:00;;;;;;;10.13;6.95;;;0.90;57.50;;;;;;486502;244;27973;-76
2023/02/08 10:00:01;;;;;;;12.95;6.93;;;0.90;56.80;;;;;;486487;244;28823;-76
2023/02/08 10:02:03;;;;;;;11.60;7.75;;;0.90;56.10;;;;;;486502;244;27390;-76
2023/02/08 10:04:04;;;;;;;13.85;8.43;;;0.90;56.20;;;;;;486529;244;27470;-77
2023/02/08 10:06:05;;;;;;;8.50;6.53;;;0.90;55.60;;;;;;486528;244;27445;-76
2023/02/08 10:08:06;;;;;;;12.23;7.05;;;1.00;54.90;;;;;;486473;244;27580;-77
2023/02/08 10:10:08;;;;;;;9.75;6.72;;;1.00;55.90;;;;;;486519;244;27481;-76
2023/02/08 10:12:09;;;;;;;11.30;6.78;;;1.00;54.70;;;;;;486550;244;27418;-76
2023/02/08 10:14:12;;;;;;;11.95;6.78;;;1.10;54.40;;;;;;486392;244;27469;-76
2023/02/08 10:16:11;;;;;;;7.93;6.20;;;1.20;54.10;;;;;;486413;244;27522;-76
2023/02/08 10:18:13;;;;;;;11.40;6.78;;;1.20;54.50;;;;;;486452;242;28032;-76
2023/02/08 10:20:14;;;;;;;11.73;7.15;;;1.30;54.70;;;;;;486525;244;28012;-76
2023/02/08 10:22:15;;;;;;;9.15;6.18;;;1.30;53.80;;;;;;486520;244;27950;-76
2023/02/08 10:24:16;;;;;;;10.02;6.93;;;1.40;54.80;;;;;;486509;244;27462;-76
2023/02/08 10:26:18;;;;;;;9.70;6.95;;;1.50;54.30;;;;;;486476;244;27398;-76